Time;durP1;ratioP1;P1;durP2;ratioP2;P2;SDS_P1;SDS_P2;PMS_P1;PMS_P2;Temp;Humidity;BMP_temperature;BMP_pressure;BME280_temperature;BME280_humidity;BME280_pressure;Samples;Min_cycle;Max_cycle;Signal;HPM_P1;HPM_P2
2022/08/14 00:01:42;;;;;;;5.07;3.88;;;;;;;;;;5005914;28;20060;-73
2022/08/14 00:04:09;;;;;;;5.97;4.25;;;;;;;;;;5006004;28;20092;-73
2022/08/14 00:06:35;;;;;;;5.50;4.00;;;;;;;;;;5006215;28;20014;-73
2022/08/14 00:09:01;;;;;;;8.38;4.10;;;;;;;;;;5005902;28;20026;-73
2022/08/14 00:11:27;;;;;;;4.43;4.03;;;;;;;;;;5005596;28;20034;-73
2022/08/14 00:13:54;;;;;;;4.55;4.10;;;;;;;;;;5005802;28;20079;-73
2022/08/14 00:16:20;;;;;;;9.95;4.45;;;;;;;;;;5001708;28;20030;-74
2022/08/14 00:18:46;;;;;;;5.20;4.18;;;;;;;;;;4998207;28;20633;-73
2022/08/14 00:21:12;;;;;;;6.30;4.63;;;;;;;;;;4996238;28;20034;-74
2022/08/14 00:23:39;;;;;;;7.30;4.32;;;;;;;;;;4996511;28;20500;-73
2022/08/14 00:26:05;;;;;;;6.10;4.18;;;;;;;;;;5009630;28;20516;-73
2022/08/14 00:28:32;;;;;;;5.50;4.30;;;;;;;;;;5000679;28;20022;-73
2022/08/14 00:30:58;;;;;;;4.70;3.92;;;;;;;;;;4997973;28;20029;-73
2022/08/14 00:33:25;;;;;;;6.68;4.25;;;;;;;;;;4996889;28;20470;-73
2022/08/14 00:35:52;;;;;;;5.25;4.15;;;;;;;;;;4992811;28;20037;-73
2022/08/14 00:38:18;;;;;;;6.30;4.07;;;;;;;;;;5000552;28;20037;-73
2022/08/14 00:40:44;;;;;;;4.20;3.78;;;;;;;;;;4991037;28;20441;-74
2022/08/14 00:43:11;;;;;;;6.70;4.07;;;;;;;;;;4994383;28;20033;-74
2022/08/14 00:45:40;;;;;;;6.55;4.28;;;;;;;;;;4995425;28;20030;-73
2022/08/14 00:48:06;;;;;;;6.90;4.20;;;;;;;;;;4999258;28;20457;-73
2022/08/14 00:50:33;;;;;;;5.90;4.70;;;;;;;;;;4995441;28;20018;-73
2022/08/14 00:52:59;;;;;;;7.03;4.00;;;;;;;;;;5000630;28;20034;-73
2022/08/14 00:55:26;;;;;;;5.07;4.57;;;;;;;;;;5003486;28;20085;-73
2022/08/14 01:00:38;;;;;;;5.50;4.47;;;;;;;;;;4996028;28;20103;-74
2022/08/14 01:03:05;;;;;;;5.82;4.38;;;;;;;;;;4998017;28;20029;-73
2022/08/14 01:05:32;;;;;;;4.38;3.97;;;;;;;;;;4979952;28;20032;-74
2022/08/14 01:08:00;;;;;;;5.47;4.07;;;;;;;;;;4997872;28;20537;-73
2022/08/14 01:10:49;;;;;;;6.05;4.50;;;;;;;;;;5000638;28;20022;-73
2022/08/14 01:13:15;;;;;;;5.93;4.63;;;;;;;;;;4996318;28;20053;-73
2022/08/14 01:15:42;;;;;;;8.15;4.70;;;;;;;;;;4999028;28;20367;-73
2022/08/14 01:21:05;;;;;;;5.18;4.68;;;;;;;;;;4998091;28;20080;-73
2022/08/14 01:23:31;;;;;;;6.32;4.80;;;;;;;;;;4997397;28;20184;-73
2022/08/14 01:25:58;;;;;;;7.78;4.88;;;;;;;;;;4980166;28;20037;-73
2022/08/14 01:28:30;;;;;;;5.32;4.40;;;;;;;;;;4998910;28;20027;-73
2022/08/14 01:30:57;;;;;;;5.55;4.38;;;;;;;;;;4997138;28;20502;-73
2022/08/14 01:33:27;;;;;;;5.82;4.40;;;;;;;;;;4994721;28;20634;-74
2022/08/14 01:35:56;;;;;;;6.20;4.45;;;;;;;;;;4979869;28;20065;-73
2022/08/14 01:38:23;;;;;;;7.22;4.18;;;;;;;;;;4979176;28;20463;-74
2022/08/14 01:40:50;;;;;;;5.57;4.97;;;;;;;;;;4999867;28;20133;-74
2022/08/14 01:43:16;;;;;;;9.45;4.68;;;;;;;;;;4995402;28;20022;-73
2022/08/14 01:45:43;;;;;;;4.60;4.20;;;;;;;;;;4995667;28;20018;-73
2022/08/14 01:48:10;;;;;;;5.03;4.53;;;;;;;;;;4990122;28;20105;-73
2022/08/14 01:50:36;;;;;;;5.80;5.13;;;;;;;;;;4987026;28;20542;-74
2022/08/14 01:53:03;;;;;;;5.20;4.20;;;;;;;;;;4999145;28;20298;-73
2022/08/14 01:55:30;;;;;;;6.00;4.32;;;;;;;;;;4999137;28;20022;-73
2022/08/14 01:57:57;;;;;;;5.57;4.90;;;;;;;;;;4996492;28;20108;-73
2022/08/14 02:00:24;;;;;;;7.68;5.13;;;;;;;;;;4997770;28;20026;-73
2022/08/14 02:02:50;;;;;;;6.35;4.55;;;;;;;;;;4999142;28;20042;-73
2022/08/14 02:05:16;;;;;;;5.65;4.72;;;;;;;;;;4999419;28;20371;-73
2022/08/14 02:07:44;;;;;;;4.70;4.03;;;;;;;;;;5001850;28;20399;-73
2022/08/14 02:10:11;;;;;;;8.48;4.75;;;;;;;;;;4999079;28;20096;-73
2022/08/14 02:12:37;;;;;;;7.72;4.75;;;;;;;;;;4998680;28;20541;-74
2022/08/14 02:15:10;;;;;;;5.68;5.03;;;;;;;;;;5002640;28;20127;-73
2022/08/14 02:17:36;;;;;;;5.95;4.88;;;;;;;;;;4999046;28;20041;-73
2022/08/14 02:20:04;;;;;;;6.65;5.28;;;;;;;;;;4998733;28;20061;-73
2022/08/14 02:22:30;;;;;;;5.95;4.60;;;;;;;;;;5003341;28;20381;-74
2022/08/14 02:24:56;;;;;;;6.28;4.88;;;;;;;;;;5003067;28;20029;-74
2022/08/14 02:27:22;;;;;;;5.70;5.20;;;;;;;;;;5008078;28;20096;-73
2022/08/14 02:29:49;;;;;;;7.25;5.53;;;;;;;;;;4994186;28;20025;-73
2022/08/14 02:32:16;;;;;;;9.23;5.57;;;;;;;;;;5004693;28;20033;-73
2022/08/14 02:34:43;;;;;;;5.93;5.13;;;;;;;;;;5001553;28;20033;-73
2022/08/14 02:37:10;;;;;;;7.25;5.63;;;;;;;;;;5007191;28;21972;-73
2022/08/14 02:39:38;;;;;;;8.18;5.43;;;;;;;;;;5007395;28;20032;-73
2022/08/14 02:42:06;;;;;;;6.32;5.72;;;;;;;;;;4995967;28;20345;-74
2022/08/14 02:44:33;;;;;;;5.97;5.35;;;;;;;;;;5005884;28;20030;-73
2022/08/14 02:47:00;;;;;;;6.65;5.47;;;;;;;;;;5003743;28;20029;-74
2022/08/14 02:49:27;;;;;;;7.63;5.40;;;;;;;;;;5007943;28;20109;-73
2022/08/14 02:51:54;;;;;;;10.98;5.93;;;;;;;;;;5001303;28;20022;-73
2022/08/14 02:54:23;;;;;;;7.07;5.57;;;;;;;;;;5004682;28;20069;-73
2022/08/14 02:56:53;;;;;;;6.10;5.50;;;;;;;;;;4998196;28;20058;-73
2022/08/14 02:59:20;;;;;;;6.82;6.00;;;;;;;;;;4998565;28;20041;-73
2022/08/14 03:01:46;;;;;;;6.32;5.60;;;;;;;;;;4995496;28;20037;-73
2022/08/14 03:04:13;;;;;;;6.93;5.90;;;;;;;;;;4997595;28;20216;-73
2022/08/14 03:06:44;;;;;;;7.70;5.97;;;;;;;;;;5001394;28;20023;-73
2022/08/14 03:09:10;;;;;;;6.82;6.13;;;;;;;;;;4999199;28;20026;-73
2022/08/14 03:11:37;;;;;;;7.43;5.88;;;;;;;;;;5001053;28;20382;-74
2022/08/14 03:14:03;;;;;;;8.70;5.95;;;;;;;;;;5001883;28;20034;-73
2022/08/14 03:16:35;;;;;;;6.57;5.95;;;;;;;;;;5001862;28;20437;-74
2022/08/14 03:19:01;;;;;;;;;;;;;;;;;;4998214;28;20050;-73
2022/08/14 03:21:30;;;;;;;6.93;5.85;;;;;;;;;;5000851;28;19917;-73
2022/08/14 03:26:34;;;;;;;7.00;5.70;;;;;;;;;;4998812;28;20046;-73
2022/08/14 03:29:01;;;;;;;7.13;5.90;;;;;;;;;;4999102;28;20029;-74
2022/08/14 03:31:27;;;;;;;9.80;5.95;;;;;;;;;;4997478;28;20029;-73
2022/08/14 03:33:54;;;;;;;8.02;5.60;;;;;;;;;;5001913;28;20091;-74
2022/08/14 03:36:21;;;;;;;6.03;5.43;;;;;;;;;;4982510;28;20026;-73
2022/08/14 03:38:50;;;;;;;7.75;6.47;;;;;;;;;;4995781;28;20033;-73
2022/08/14 03:41:17;;;;;;;8.65;5.88;;;;;;;;;;4999722;28;20527;-74
2022/08/14 03:43:45;;;;;;;8.25;5.50;;;;;;;;;;4996624;28;20521;-74
2022/08/14 03:46:12;;;;;;;7.80;5.53;;;;;;;;;;4984986;28;20085;-74
2022/08/14 03:48:38;;;;;;;5.97;5.38;;;;;;;;;;4995087;28;20036;-74
2022/08/14 03:51:07;;;;;;;6.70;5.60;;;;;;;;;;4997962;28;20133;-73
2022/08/14 03:53:37;;;;;;;7.30;5.07;;;;;;;;;;5000031;28;20037;-74
2022/08/14 03:56:06;;;;;;;5.93;5.35;;;;;;;;;;4996283;28;20018;-73
2022/08/14 03:58:33;;;;;;;6.15;5.53;;;;;;;;;;4995948;28;20029;-73
2022/08/14 04:01:01;;;;;;;7.43;5.75;;;;;;;;;;4999174;28;20024;-74
2022/08/14 04:03:27;;;;;;;9.18;6.00;;;;;;;;;;4993506;28;20677;-74
2022/08/14 04:05:53;;;;;;;7.90;6.03;;;;;;;;;;4977023;28;20200;-75
2022/08/14 04:08:20;;;;;;;9.20;6.15;;;;;;;;;;4990886;28;20501;-74
2022/08/14 04:10:46;;;;;;;7.40;6.53;;;;;;;;;;4988688;28;20506;-73
2022/08/14 04:13:17;;;;;;;9.43;6.63;;;;;;;;;;4986351;28;20032;-74
2022/08/14 04:15:44;;;;;;;10.02;6.68;;;;;;;;;;4977808;28;20385;-73
2022/08/14 04:18:11;;;;;;;6.35;5.75;;;;;;;;;;4983289;28;20042;-75
2022/08/14 04:20:41;;;;;;;8.05;6.50;;;;;;;;;;4994780;28;20707;-74
2022/08/14 04:23:07;;;;;;;7.38;6.32;;;;;;;;;;4991335;28;20041;-75
2022/08/14 04:25:35;;;;;;;7.13;6.47;;;;;;;;;;4982246;28;20023;-75
2022/08/14 04:28:02;;;;;;;10.32;6.68;;;;;;;;;;4985673;28;20026;-76
2022/08/14 04:30:38;;;;;;;9.60;6.40;;;;;;;;;;4988821;28;20054;-74
2022/08/14 04:33:06;;;;;;;7.43;6.70;;;;;;;;;;4985967;28;20022;-74
2022/08/14 04:35:32;;;;;;;7.10;6.40;;;;;;;;;;4985511;28;20361;-75
2022/08/14 04:43:35;;;;;;;6.63;5.93;;;;;;;;;;4987840;28;20538;-75
2022/08/14 04:46:06;;;;;;;7.90;6.20;;;;;;;;;;4993586;28;20096;-74
2022/08/14 04:48:32;;;;;;;7.22;6.25;;;;;;;;;;4998222;28;20030;-74
2022/08/14 04:50:59;;;;;;;7.13;6.10;;;;;;;;;;4990181;28;20120;-75
2022/08/14 04:53:27;;;;;;;8.15;6.07;;;;;;;;;;4985856;28;20045;-75
2022/08/14 04:55:53;;;;;;;7.40;6.50;;;;;;;;;;4993060;28;20025;-74
2022/08/14 04:58:27;;;;;;;8.20;6.60;;;;;;;;;;4986285;28;20038;-74
2022/08/14 05:00:55;;;;;;;7.15;6.55;;;;;;;;;;4987358;28;20023;-74
2022/08/14 05:03:22;;;;;;;6.72;6.10;;;;;;;;;;4990966;28;20026;-76
2022/08/14 05:05:49;;;;;;;6.90;6.15;;;;;;;;;;4978217;28;20101;-80
2022/08/14 05:08:16;;;;;;;8.35;6.70;;;;;;;;;;4988069;28;20028;-78
2022/08/14 05:10:44;;;;;;;7.20;6.22;;;;;;;;;;4996169;28;20109;-80
2022/08/14 05:13:11;;;;;;;9.00;6.60;;;;;;;;;;4992939;28;20014;-80
2022/08/14 05:15:38;;;;;;;10.38;6.88;;;;;;;;;;5001984;28;20823;-79
2022/08/14 05:18:12;;;;;;;6.78;6.10;;;;;;;;;;5001405;28;20738;-79
2022/08/14 05:20:42;;;;;;;7.82;6.47;;;;;;;;;;4984072;28;20052;-78
2022/08/14 05:23:13;;;;;;;9.38;5.90;;;;;;;;;;5001938;28;20513;-78
2022/08/14 05:25:39;;;;;;;6.20;5.53;;;;;;;;;;5001927;28;20049;-78
2022/08/14 05:28:10;;;;;;;6.22;5.60;;;;;;;;;;5001670;28;20042;-78
2022/08/14 05:30:37;;;;;;;6.50;5.80;;;;;;;;;;5001699;28;20017;-78
2022/08/14 05:33:03;;;;;;;6.18;5.57;;;;;;;;;;5002093;28;20404;-79
2022/08/14 05:35:31;;;;;;;7.50;6.70;;;;;;;;;;5001608;28;20022;-78
2022/08/14 05:37:58;;;;;;;7.55;6.20;;;;;;;;;;5001085;28;20113;-79
2022/08/14 05:40:24;;;;;;;9.85;5.68;;;;;;;;;;5001585;28;20076;-79
2022/08/14 05:42:50;;;;;;;6.68;5.82;;;;;;;;;;5001921;28;20034;-79
2022/08/14 05:45:17;;;;;;;6.05;5.45;;;;;;;;;;5001400;28;20018;-78
2022/08/14 05:47:44;;;;;;;8.90;5.70;;;;;;;;;;5001759;28;20140;-79
2022/08/14 05:50:11;;;;;;;9.77;6.45;;;;;;;;;;5001728;28;20304;-79
2022/08/14 05:52:38;;;;;;;5.88;5.28;;;;;;;;;;5001187;28;20972;-78
2022/08/14 05:55:05;;;;;;;6.80;5.18;;;;;;;;;;5001782;28;20072;-78
2022/08/14 05:57:31;;;;;;;6.75;5.15;;;;;;;;;;5003355;28;20026;-78
2022/08/14 05:59:58;;;;;;;5.53;5.03;;;;;;;;;;5005707;28;20088;-78
2022/08/14 06:02:24;;;;;;;6.00;5.22;;;;;;;;;;5005808;28;20077;-78
2022/08/14 06:04:50;;;;;;;7.38;5.45;;;;;;;;;;5005285;28;20108;-79
2022/08/14 06:07:16;;;;;;;8.82;5.85;;;;;;;;;;5005347;28;20114;-78
2022/08/14 06:09:43;;;;;;;7.35;5.80;;;;;;;;;;5005315;28;20110;-79
2022/08/14 06:12:10;;;;;;;5.95;5.18;;;;;;;;;;5005017;28;20030;-79
2022/08/14 06:14:37;;;;;;;6.97;5.55;;;;;;;;;;5005019;28;20018;-79
2022/08/14 06:17:03;;;;;;;10.15;5.57;;;;;;;;;;5004829;28;20030;-79
2022/08/14 06:19:29;;;;;;;6.63;6.00;;;;;;;;;;5004593;28;20129;-80
2022/08/14 06:21:56;;;;;;;5.72;5.20;;;;;;;;;;5004946;28;20033;-78
2022/08/14 06:24:22;;;;;;;8.00;6.07;;;;;;;;;;5005664;28;20622;-79
2022/08/14 06:26:48;;;;;;;6.75;5.70;;;;;;;;;;4987541;28;20044;-79
2022/08/14 06:29:14;;;;;;;6.75;5.75;;;;;;;;;;5004875;28;20114;-78
2022/08/14 06:31:40;;;;;;;6.35;5.53;;;;;;;;;;5004923;28;20681;-79
2022/08/14 06:34:06;;;;;;;6.72;5.75;;;;;;;;;;5005184;28;20029;-79
2022/08/14 06:36:34;;;;;;;7.55;5.90;;;;;;;;;;5004750;28;20186;-79
2022/08/14 06:39:00;;;;;;;7.38;5.45;;;;;;;;;;5004345;28;20044;-79
2022/08/14 06:41:27;;;;;;;7.75;6.28;;;;;;;;;;4987146;28;20022;-79
2022/08/14 06:43:53;;;;;;;6.43;5.72;;;;;;;;;;5004342;28;20604;-79
2022/08/14 06:46:19;;;;;;;6.47;5.75;;;;;;;;;;5004633;28;20101;-79
2022/08/14 06:48:48;;;;;;;7.85;5.47;;;;;;;;;;5004354;28;20026;-79
2022/08/14 06:51:14;;;;;;;7.32;5.40;;;;;;;;;;5004394;28;20029;-79
2022/08/14 06:53:40;;;;;;;6.65;5.70;;;;;;;;;;4987051;28;20467;-80
2022/08/14 06:56:07;;;;;;;9.60;6.10;;;;;;;;;;4990961;28;20022;-78
2022/08/14 06:58:33;;;;;;;186.60;20.92;;;;;;;;;;4993394;28;20049;-72
2022/08/14 07:06:29;;;;;;;6.15;5.55;;;;;;;;;;4994596;28;20572;-76
2022/08/14 07:08:55;;;;;;;6.18;5.10;;;;;;;;;;4993058;28;20065;-76
2022/08/14 07:11:22;;;;;;;6.25;5.32;;;;;;;;;;4988106;28;20022;-77
2022/08/14 07:13:48;;;;;;;6.07;5.38;;;;;;;;;;4995271;28;20042;-76
2022/08/14 07:16:14;;;;;;;6.80;5.40;;;;;;;;;;4987058;28;20034;-76
2022/08/14 07:18:40;;;;;;;8.23;5.78;;;;;;;;;;4995073;28;20821;-76
2022/08/14 07:21:07;;;;;;;7.30;5.35;;;;;;;;;;5003836;28;20435;-76
2022/08/14 07:23:33;;;;;;;5.82;5.30;;;;;;;;;;5003650;28;20018;-77
2022/08/14 07:26:00;;;;;;;6.25;5.65;;;;;;;;;;5003401;28;20026;-77
2022/08/14 07:28:31;;;;;;;6.88;5.50;;;;;;;;;;5003490;28;20073;-76
2022/08/14 07:30:58;;;;;;;9.57;5.40;;;;;;;;;;4996550;28;20033;-76
2022/08/14 07:33:25;;;;;;;6.53;5.70;;;;;;;;;;5001712;28;20026;-76
2022/08/14 07:35:52;;;;;;;6.90;5.57;;;;;;;;;;4990825;28;20030;-77
2022/08/14 07:38:19;;;;;;;7.05;5.53;;;;;;;;;;4996276;28;20048;-76
2022/08/14 07:40:45;;;;;;;10.13;5.97;;;;;;;;;;4999116;28;20041;-76
2022/08/14 07:43:12;;;;;;;6.00;5.40;;;;;;;;;;4985587;28;20034;-76
2022/08/14 07:45:39;;;;;;;7.63;5.63;;;;;;;;;;4989021;28;20030;-77
2022/08/14 07:48:05;;;;;;;7.00;6.13;;;;;;;;;;4987153;28;20113;-76
2022/08/14 07:50:32;;;;;;;8.13;5.38;;;;;;;;;;4986284;28;20031;-76
2022/08/14 07:52:58;;;;;;;8.10;5.22;;;;;;;;;;4984070;28;20042;-76
2022/08/14 07:55:25;;;;;;;7.10;5.30;;;;;;;;;;4985903;28;20022;-76
2022/08/14 07:57:51;;;;;;;7.55;4.93;;;;;;;;;;4999850;28;20048;-76
2022/08/14 08:00:19;;;;;;;10.32;6.63;;;;;;;;;;5003638;28;20025;-76
2022/08/14 08:02:46;;;;;;;4.88;4.38;;;;;;;;;;5002983;28;20029;-76
2022/08/14 08:05:14;;;;;;;5.75;4.85;;;;;;;;;;4997246;28;20034;-78
2022/08/14 08:07:41;;;;;;;6.07;4.60;;;;;;;;;;4994419;28;20026;-77
2022/08/14 08:10:30;;;;;;;7.95;5.25;;;;;;;;;;4979190;28;20101;-77
2022/08/14 08:12:57;;;;;;;5.72;4.80;;;;;;;;;;4970495;28;20434;-77
2022/08/14 08:15:25;;;;;;;5.93;5.30;;;;;;;;;;4966271;28;20034;-78
2022/08/14 08:17:51;;;;;;;5.10;4.60;;;;;;;;;;4983639;28;20481;-77
2022/08/14 08:20:23;;;;;;;6.25;4.40;;;;;;;;;;4997067;28;20042;-78
2022/08/14 08:22:50;;;;;;;5.22;4.72;;;;;;;;;;4993256;28;20010;-77
2022/08/14 08:25:20;;;;;;;5.20;4.70;;;;;;;;;;4987556;28;20026;-77
2022/08/14 08:28:03;;;;;;;5.50;5.00;;;;;;;;;;4987640;28;20264;-74
2022/08/14 08:30:31;;;;;;;6.35;5.03;;;;;;;;;;4997254;28;20064;-75
2022/08/14 08:33:00;;;;;;;5.75;4.65;;;;;;;;;;4990189;28;20038;-76
2022/08/14 08:35:27;;;;;;;7.47;4.88;;;;;;;;;;4988420;28;20054;-78
2022/08/14 08:37:55;;;;;;;5.20;4.70;;;;;;;;;;4987786;28;20046;-75
2022/08/14 08:40:41;;;;;;;5.80;4.57;;;;;;;;;;4992803;28;20033;-75
2022/08/14 08:43:08;;;;;;;6.80;5.28;;;;;;;;;;4993325;28;20597;-80
2022/08/14 08:45:40;;;;;;;5.55;4.18;;;;;;;;;;4978516;28;20076;-81
2022/08/14 08:48:06;;;;;;;6.60;4.72;;;;;;;;;;4997459;28;20081;-79
2022/08/14 08:50:37;;;;;;;5.40;4.80;;;;;;;;;;4994945;28;20030;-78
2022/08/14 08:53:05;;;;;;;5.13;4.65;;;;;;;;;;4998300;28;20097;-78
2022/08/14 08:55:37;;;;;;;6.22;5.15;;;;;;;;;;4987586;28;20064;-78
2022/08/14 08:58:16;;;;;;;4.80;4.40;;;;;;;;;;4989448;28;20069;-77
2022/08/14 09:00:45;;;;;;;4.93;4.43;;;;;;;;;;4997457;28;20018;-74
2022/08/14 09:03:17;;;;;;;5.82;4.55;;;;;;;;;;4992624;28;20038;-77
2022/08/14 09:05:49;;;;;;;5.85;4.88;;;;;;;;;;4993232;28;20097;-78
2022/08/14 09:08:25;;;;;;;5.30;4.80;;;;;;;;;;4997190;28;20030;-78
2022/08/14 09:10:54;;;;;;;5.28;4.60;;;;;;;;;;4998268;28;20209;-78
2022/08/14 09:13:24;;;;;;;6.00;4.20;;;;;;;;;;4998033;28;20124;-78
2022/08/14 09:15:50;;;;;;;5.60;4.97;;;;;;;;;;4998990;28;20034;-77
2022/08/14 09:18:18;;;;;;;6.28;4.93;;;;;;;;;;4995571;28;20045;-78
2022/08/14 09:20:46;;;;;;;6.05;4.88;;;;;;;;;;4995594;28;20549;-78
2022/08/14 09:23:13;;;;;;;4.55;4.15;;;;;;;;;;5004419;28;20730;-78
2022/08/14 09:25:40;;;;;;;6.32;4.82;;;;;;;;;;4999335;28;20474;-78
2022/08/14 09:28:07;;;;;;;5.20;4.43;;;;;;;;;;4994498;28;20029;-77
2022/08/14 09:30:35;;;;;;;4.95;4.55;;;;;;;;;;4994143;28;20018;-78
2022/08/14 09:33:04;;;;;;;5.18;4.68;;;;;;;;;;4992564;28;20088;-78
2022/08/14 09:35:43;;;;;;;7.22;4.78;;;;;;;;;;4992996;28;20060;-77
2022/08/14 09:38:31;;;;;;;6.60;4.90;;;;;;;;;;4991298;28;20052;-77
2022/08/14 09:40:57;;;;;;;7.53;5.00;;;;;;;;;;4990845;28;20478;-78
2022/08/14 09:43:30;;;;;;;12.85;5.85;;;;;;;;;;4992128;28;20020;-78
2022/08/14 09:46:00;;;;;;;6.07;4.97;;;;;;;;;;4991570;28;20093;-78
2022/08/14 09:48:27;;;;;;;6.50;4.78;;;;;;;;;;4992729;28;20019;-78
2022/08/14 09:50:54;;;;;;;11.90;5.50;;;;;;;;;;4994068;28;20026;-78
2022/08/14 09:53:34;;;;;;;11.10;5.80;;;;;;;;;;4992842;28;20113;-78
2022/08/14 09:56:02;;;;;;;11.30;6.80;;;;;;;;;;4975645;28;20066;-77
2022/08/14 09:58:39;;;;;;;7.25;5.43;;;;;;;;;;4994898;28;20045;-78
2022/08/14 10:01:13;;;;;;;5.53;4.90;;;;;;;;;;4992629;28;20029;-78
2022/08/14 10:03:55;;;;;;;8.25;5.50;;;;;;;;;;4991228;28;20040;-78
2022/08/14 10:06:26;;;;;;;7.10;5.38;;;;;;;;;;4995410;28;20722;-78
2022/08/14 10:09:01;;;;;;;7.20;5.50;;;;;;;;;;4976703;28;20026;-78
2022/08/14 10:11:34;;;;;;;5.90;5.30;;;;;;;;;;4990589;28;20259;-78
2022/08/14 10:14:21;;;;;;;6.03;5.25;;;;;;;;;;4979025;28;20118;-78
2022/08/14 10:16:53;;;;;;;6.85;5.68;;;;;;;;;;4991601;28;20124;-75
2022/08/14 10:19:20;;;;;;;6.97;5.82;;;;;;;;;;4991294;28;20137;-76
2022/08/14 10:22:09;;;;;;;6.40;5.80;;;;;;;;;;4991757;28;20026;-76
2022/08/14 10:24:46;;;;;;;6.40;5.47;;;;;;;;;;4990797;28;20029;-76
2022/08/14 10:27:18;;;;;;;7.00;5.55;;;;;;;;;;4991378;28;20041;-76
2022/08/14 10:29:48;;;;;;;6.22;5.63;;;;;;;;;;4999373;28;20021;-75
2022/08/14 10:32:14;;;;;;;6.25;5.32;;;;;;;;;;4994033;28;20029;-75
2022/08/14 10:34:41;;;;;;;6.20;5.60;;;;;;;;;;4972808;28;20038;-75
2022/08/14 10:37:08;;;;;;;7.10;5.90;;;;;;;;;;4994052;28;20032;-76
2022/08/14 10:39:37;;;;;;;8.32;6.00;;;;;;;;;;4997746;28;20034;-76
2022/08/14 10:42:05;;;;;;;6.65;5.90;;;;;;;;;;4980168;28;20033;-76
2022/08/14 10:44:34;;;;;;;12.25;6.03;;;;;;;;;;4999225;28;20073;-76
2022/08/14 10:47:06;;;;;;;6.28;5.68;;;;;;;;;;4994785;28;20022;-76
2022/08/14 10:49:33;;;;;;;7.03;5.30;;;;;;;;;;4993964;28;20026;-76
2022/08/14 10:52:07;;;;;;;6.97;6.18;;;;;;;;;;4996998;28;20101;-75
2022/08/14 10:54:41;;;;;;;6.35;5.75;;;;;;;;;;4997017;28;20018;-76
2022/08/14 10:57:19;;;;;;;6.20;5.57;;;;;;;;;;4998320;28;20053;-75
2022/08/14 10:59:45;;;;;;;6.22;5.57;;;;;;;;;;4995648;28;20052;-75
2022/08/14 11:02:23;;;;;;;6.82;5.93;;;;;;;;;;5000430;28;20033;-75
2022/08/14 11:05:06;;;;;;;6.03;5.43;;;;;;;;;;5002367;28;20034;-75
2022/08/14 11:07:32;;;;;;;5.35;4.60;;;;;;;;;;4997186;28;20029;-75
2022/08/14 11:09:59;;;;;;;6.40;5.57;;;;;;;;;;4995949;28;20045;-75
2022/08/14 11:12:27;;;;;;;6.13;5.53;;;;;;;;;;4994322;28;20033;-75
2022/08/14 11:14:55;;;;;;;6.47;5.75;;;;;;;;;;4997390;28;20029;-76
2022/08/14 11:17:23;;;;;;;5.63;5.05;;;;;;;;;;4979279;28;20418;-75
2022/08/14 11:19:51;;;;;;;8.02;5.68;;;;;;;;;;4995466;28;20609;-75
2022/08/14 11:22:18;;;;;;;7.47;5.40;;;;;;;;;;4997662;28;20023;-75
2022/08/14 11:24:45;;;;;;;6.63;5.68;;;;;;;;;;4997958;28;20530;-76
2022/08/14 11:27:14;;;;;;;8.35;5.30;;;;;;;;;;4979474;28;20032;-75
2022/08/14 11:29:41;;;;;;;7.95;5.47;;;;;;;;;;4995105;28;20018;-76
2022/08/14 11:32:08;;;;;;;7.20;5.25;;;;;;;;;;4994938;28;20018;-75
2022/08/14 11:34:38;;;;;;;6.03;5.43;;;;;;;;;;4992495;28;20440;-75
2022/08/14 11:37:13;;;;;;;5.90;5.40;;;;;;;;;;4992308;28;20148;-76
2022/08/14 11:39:40;;;;;;;5.80;5.30;;;;;;;;;;4988490;28;20174;-76
2022/08/14 11:42:07;;;;;;;7.72;5.35;;;;;;;;;;4991855;28;20060;-76
2022/08/14 11:44:33;;;;;;;7.25;5.20;;;;;;;;;;4973359;28;20386;-77
2022/08/14 11:47:02;;;;;;;7.88;5.38;;;;;;;;;;4992938;28;20603;-75
2022/08/14 11:49:32;;;;;;;5.95;5.10;;;;;;;;;;4991979;28;20091;-76
2022/08/14 11:51:58;;;;;;;5.95;4.75;;;;;;;;;;4992933;28;20037;-75
2022/08/14 11:54:24;;;;;;;6.32;5.70;;;;;;;;;;4997750;28;20026;-75
2022/08/14 11:56:51;;;;;;;6.03;5.13;;;;;;;;;;4996003;28;20072;-75
2022/08/14 11:59:21;;;;;;;6.03;5.50;;;;;;;;;;4988427;28;20587;-75
2022/08/14 12:01:47;;;;;;;8.45;5.78;;;;;;;;;;4991375;28;20053;-75
2022/08/14 12:04:20;;;;;;;6.72;5.07;;;;;;;;;;4993061;28;20509;-75
2022/08/14 12:06:51;;;;;;;6.03;5.45;;;;;;;;;;4995300;28;20029;-76
2022/08/14 12:09:37;;;;;;;10.63;5.53;;;;;;;;;;4993033;28;20643;-75
2022/08/14 12:12:14;;;;;;;7.32;5.47;;;;;;;;;;4993262;28;20034;-75
2022/08/14 12:14:52;;;;;;;6.53;5.93;;;;;;;;;;4991444;28;20026;-75
2022/08/14 12:17:18;;;;;;;6.82;5.07;;;;;;;;;;4986434;28;20038;-75
2022/08/14 12:19:46;;;;;;;5.97;5.38;;;;;;;;;;4988750;28;20650;-75
2022/08/14 12:22:12;;;;;;;6.45;4.63;;;;;;;;;;4996281;28;20564;-75
2022/08/14 12:24:42;;;;;;;5.43;4.93;;;;;;;;;;4999083;28;20034;-75
2022/08/14 12:27:08;;;;;;;5.93;5.32;;;;;;;;;;4998076;28;20026;-75
2022/08/14 12:29:35;;;;;;;7.45;5.25;;;;;;;;;;4992097;28;20605;-75
2022/08/14 12:32:06;;;;;;;6.45;5.50;;;;;;;;;;4992306;28;20032;-75
2022/08/14 12:34:33;;;;;;;5.47;4.85;;;;;;;;;;4995590;28;20497;-75
2022/08/14 12:37:06;;;;;;;5.80;5.10;;;;;;;;;;4997766;28;20030;-75
2022/08/14 12:39:33;;;;;;;8.00;4.93;;;;;;;;;;4993741;28;20101;-75
2022/08/14 12:42:05;;;;;;;5.57;5.07;;;;;;;;;;4994157;28;20049;-75
2022/08/14 12:44:43;;;;;;;6.10;4.88;;;;;;;;;;4993951;28;20026;-75
2022/08/14 12:47:15;;;;;;;6.95;5.13;;;;;;;;;;4995794;28;20478;-75
2022/08/14 12:49:53;;;;;;;6.70;5.57;;;;;;;;;;4990258;28;20033;-77
2022/08/14 12:52:29;;;;;;;8.05;5.60;;;;;;;;;;4998940;28;20109;-77
2022/08/14 12:55:03;;;;;;;5.72;5.22;;;;;;;;;;4974767;28;20030;-76
2022/08/14 12:57:41;;;;;;;5.38;4.95;;;;;;;;;;4996091;28;20062;-77
2022/08/14 13:00:11;;;;;;;5.85;4.88;;;;;;;;;;4997679;28;20028;-76
2022/08/14 13:02:40;;;;;;;5.82;5.22;;;;;;;;;;4999029;28;20076;-77
2022/08/14 13:05:08;;;;;;;5.75;5.10;;;;;;;;;;4995464;28;20029;-76
2022/08/14 13:07:34;;;;;;;6.25;4.50;;;;;;;;;;4996252;28;20382;-76
2022/08/14 13:10:01;;;;;;;5.68;4.82;;;;;;;;;;4997431;28;20062;-76
2022/08/14 13:12:28;;;;;;;5.70;5.10;;;;;;;;;;4988837;28;20042;-77
2022/08/14 13:15:00;;;;;;;5.97;5.10;;;;;;;;;;4992098;28;20026;-76
2022/08/14 13:17:27;;;;;;;7.35;4.65;;;;;;;;;;4986675;28;20109;-77
2022/08/14 13:19:55;;;;;;;8.65;5.13;;;;;;;;;;4989772;28;20092;-77
2022/08/14 13:22:26;;;;;;;5.25;4.43;;;;;;;;;;4974288;28;20022;-77
2022/08/14 13:24:53;;;;;;;5.85;4.68;;;;;;;;;;4991772;28;20112;-77
2022/08/14 13:27:22;;;;;;;6.55;5.10;;;;;;;;;;4990950;28;20088;-77
2022/08/14 13:29:51;;;;;;;5.07;4.57;;;;;;;;;;4987597;28;20026;-77
2022/08/14 13:32:17;;;;;;;6.07;5.05;;;;;;;;;;4993037;28;20022;-76
2022/08/14 13:34:44;;;;;;;22.27;5.35;;;;;;;;;;4986387;28;20034;-78
2022/08/14 13:37:11;;;;;;;12.40;5.88;;;;;;;;;;4983927;28;20204;-79
2022/08/14 13:39:37;;;;;;;11.40;5.18;;;;;;;;;;4989418;28;20034;-78
2022/08/14 13:42:07;;;;;;;6.00;4.80;;;;;;;;;;4977778;28;20150;-77
2022/08/14 13:44:33;;;;;;;5.72;5.13;;;;;;;;;;4988303;28;20022;-78
2022/08/14 13:47:00;;;;;;;6.80;4.93;;;;;;;;;;4989812;28;20045;-78
2022/08/14 13:49:26;;;;;;;5.90;4.95;;;;;;;;;;4989978;28;20030;-78
2022/08/14 13:51:57;;;;;;;5.65;4.65;;;;;;;;;;4987612;28;20026;-78
2022/08/14 13:54:24;;;;;;;6.20;5.45;;;;;;;;;;4987263;28;20041;-78
2022/08/14 13:56:50;;;;;;;6.10;5.00;;;;;;;;;;4992330;28;20037;-78
2022/08/14 13:59:17;;;;;;;5.53;4.82;;;;;;;;;;4987906;28;20042;-78
2022/08/14 14:01:44;;;;;;;5.70;4.88;;;;;;;;;;4976752;28;20495;-78
2022/08/14 14:04:17;;;;;;;5.82;5.07;;;;;;;;;;4990550;28;20034;-78
2022/08/14 14:06:46;;;;;;;5.68;4.95;;;;;;;;;;4992481;28;20053;-77
2022/08/14 14:09:14;;;;;;;5.40;4.45;;;;;;;;;;4991272;28;20023;-77
2022/08/14 14:11:40;;;;;;;8.00;5.10;;;;;;;;;;4994488;28;20026;-79
2022/08/14 14:14:08;;;;;;;4.95;4.53;;;;;;;;;;4991696;28;20023;-76
2022/08/14 14:16:35;;;;;;;4.57;4.18;;;;;;;;;;4992670;28;20019;-76
2022/08/14 14:19:03;;;;;;;5.10;4.60;;;;;;;;;;4990722;28;20546;-76
2022/08/14 14:21:30;;;;;;;5.85;4.63;;;;;;;;;;5003696;28;20057;-76
2022/08/14 14:23:57;;;;;;;5.82;4.65;;;;;;;;;;4996363;28;20034;-76
2022/08/14 14:26:24;;;;;;;6.95;4.53;;;;;;;;;;5004345;28;20518;-76
2022/08/14 14:29:00;;;;;;;7.18;4.53;;;;;;;;;;5000200;28;20030;-76
2022/08/14 14:31:27;;;;;;;8.43;4.95;;;;;;;;;;4999849;28;20014;-75
2022/08/14 14:33:58;;;;;;;5.75;4.65;;;;;;;;;;4999076;28;20076;-76
2022/08/14 14:36:25;;;;;;;5.43;4.93;;;;;;;;;;5000697;28;20517;-76
2022/08/14 14:38:53;;;;;;;6.57;4.45;;;;;;;;;;4999518;28;20041;-76
2022/08/14 14:41:20;;;;;;;5.53;4.22;;;;;;;;;;4990642;28;20581;-76
2022/08/14 14:43:48;;;;;;;4.80;4.30;;;;;;;;;;4996317;28;20379;-76
2022/08/14 14:46:17;;;;;;;4.68;4.28;;;;;;;;;;4993769;28;20018;-76
2022/08/14 14:48:43;;;;;;;5.68;4.47;;;;;;;;;;4992937;28;20502;-76
2022/08/14 14:51:10;;;;;;;4.85;4.45;;;;;;;;;;4997160;28;20080;-75
2022/08/14 14:53:37;;;;;;;5.03;4.45;;;;;;;;;;4994355;28;20037;-76
2022/08/14 14:56:04;;;;;;;4.75;4.07;;;;;;;;;;4995037;28;20026;-75
2022/08/14 14:58:30;;;;;;;5.18;4.40;;;;;;;;;;5001679;28;20065;-76
2022/08/14 15:01:02;;;;;;;6.00;4.28;;;;;;;;;;4989457;28;20411;-77
2022/08/14 15:03:28;;;;;;;5.15;4.03;;;;;;;;;;4989808;28;20065;-77
2022/08/14 15:05:55;;;;;;;4.82;4.00;;;;;;;;;;4988661;28;20026;-78
2022/08/14 15:08:21;;;;;;;5.43;4.43;;;;;;;;;;4993652;28;20013;-76
2022/08/14 15:10:47;;;;;;;7.57;4.53;;;;;;;;;;4990422;28;20117;-77